Saint Charles, South Carolina
Current Conditions -  °F | °C
As of 1:35 PM on Wednesday 26 Nov 2014 (Local Time) from KSMS Reporting Station
Overcast Overcast  
Wind Chill: 52°   Ceiling: 1900
Heat Index: 52°   Visibility: 10mi
Dew Point: 46°   Wind: 7mph
Humidity: 82%   Direction: 330°NNW
Pressure: 30.01"   Gusts: 13mph
Location:  34.0634°N, 80.2361°W
Report Text: KSMS 261835Z AUTO 33006G11KT 10SM BKN019 OVC024 11/08 A3001 RMK AO2
Loading
Personal Weather Stations






























Interactive Weather Map New forecast layout! Learn more

10-Day Weather Forecast

Advertisements
Track Severe Weather on mobile